createdAt,value
2018-04-06T00:01:40.990Z,99.90
2018-04-06T00:04:08.974Z,99.90
2018-04-06T00:06:37.310Z,99.90
2018-04-06T00:09:04.626Z,99.90
2018-04-06T00:11:31.518Z,99.90
2018-04-06T00:13:57.802Z,99.90
2018-04-06T00:16:24.793Z,99.90
2018-04-06T00:18:51.059Z,99.90
2018-04-06T00:21:17.309Z,99.90
2018-04-06T00:23:44.418Z,99.90
2018-04-06T00:26:10.690Z,99.90
2018-04-06T00:28:37.159Z,99.90
2018-04-06T00:31:05.254Z,99.90
2018-04-06T00:33:32.178Z,99.90
2018-04-06T00:35:59.169Z,99.90
2018-04-06T00:38:25.460Z,99.90
2018-04-06T00:40:52.722Z,99.90
2018-04-06T00:43:19.706Z,99.90
2018-04-06T00:45:46.494Z,99.90
2018-04-06T00:48:12.754Z,99.90
2018-04-06T00:50:40.474Z,99.90
2018-04-06T00:53:19.645Z,99.90
2018-04-06T00:55:46.649Z,99.90
2018-04-06T00:58:13.450Z,99.90
2018-04-06T01:00:40.481Z,99.90
2018-04-06T01:03:06.753Z,99.90
2018-04-06T01:05:33.583Z,99.90
2018-04-06T01:08:01.335Z,99.90
2018-04-06T01:10:28.094Z,99.90
2018-04-06T01:12:55.811Z,99.90
2018-04-06T01:15:23.586Z,99.90
2018-04-06T01:17:49.846Z,99.90
2018-04-06T01:20:16.106Z,99.90
2018-04-06T01:22:43.128Z,99.90
2018-04-06T01:25:09.377Z,99.90
2018-04-06T01:27:35.710Z,99.90
2018-04-06T01:30:02.602Z,99.90
2018-04-06T01:32:30.394Z,99.90
2018-04-06T01:34:57.489Z,99.90
2018-04-06T01:37:24.492Z,99.90
2018-04-06T01:39:50.743Z,99.90
2018-04-06T01:42:17.245Z,99.90
2018-04-06T01:44:43.902Z,99.90
2018-04-06T01:47:10.355Z,99.90
2018-04-06T01:49:37.118Z,99.90
2018-04-06T01:52:03.370Z,99.90
2018-04-06T01:54:30.107Z,99.90
2018-04-06T01:56:56.382Z,99.90
2018-04-06T01:59:22.638Z,99.90
2018-04-06T02:01:48.906Z,99.90
2018-04-06T02:04:15.896Z,99.90
2018-04-06T02:06:43.662Z,99.90
2018-04-06T02:09:11.646Z,99.90
2018-04-06T02:11:37.895Z,99.90
2018-04-06T02:14:04.194Z,99.90
2018-04-06T02:16:31.830Z,99.90
2018-04-06T02:18:58.332Z,99.90
2018-04-06T02:21:24.594Z,99.90
2018-04-06T02:23:51.394Z,99.90
2018-04-06T02:26:18.712Z,99.90
2018-04-06T02:28:45.626Z,99.90
2018-04-06T02:31:12.654Z,99.90
2018-04-06T02:33:40.241Z,99.90
2018-04-06T02:36:06.496Z,99.90
2018-04-06T02:38:32.903Z,99.90
2018-04-06T02:41:00.655Z,99.90
2018-04-06T02:43:27.039Z,99.90
2018-04-06T02:45:54.046Z,99.90
2018-04-06T02:48:21.042Z,99.90
2018-04-06T02:50:47.295Z,99.90
2018-04-06T02:53:14.080Z,99.90
2018-04-06T02:55:41.087Z,99.90
2018-04-06T02:58:07.345Z,99.90
2018-04-06T03:00:34.741Z,99.90
2018-04-06T03:03:00.996Z,99.90
2018-04-06T03:05:27.679Z,99.90
2018-04-06T03:07:54.303Z,99.90
2018-04-06T03:10:21.598Z,99.90
2018-04-06T03:12:48.558Z,99.90
2018-04-06T03:15:15.551Z,99.90
2018-04-06T03:17:41.809Z,99.90
2018-04-06T03:20:08.590Z,99.90
2018-04-06T03:22:35.642Z,99.90
2018-04-06T03:25:02.761Z,99.90
2018-04-06T03:27:29.352Z,99.90
2018-04-06T03:29:56.902Z,99.90
2018-04-06T03:32:23.890Z,99.90
2018-04-06T03:34:51.320Z,99.90
2018-04-06T03:37:18.310Z,99.90
2018-04-06T03:39:45.138Z,99.90
2018-04-06T03:42:11.402Z,99.90
2018-04-06T03:44:38.074Z,99.90
2018-04-06T03:47:05.799Z,99.90
2018-04-06T03:49:32.063Z,99.90
2018-04-06T03:51:58.638Z,99.90
2018-04-06T03:54:26.078Z,99.90
2018-04-06T03:56:52.330Z,99.90
2018-04-06T03:59:19.366Z,99.90
2018-04-06T04:01:47.054Z,99.90
2018-04-06T04:04:14.727Z,99.90
2018-04-06T04:06:42.998Z,99.90
2018-04-06T04:09:11.490Z,99.90
2018-04-06T04:11:38.497Z,99.90
2018-04-06T04:14:04.754Z,99.90
2018-04-06T04:16:31.430Z,99.90
2018-04-06T04:18:57.698Z,99.90
2018-04-06T04:21:23.950Z,99.90
2018-04-06T04:23:50.234Z,99.90
2018-04-06T04:26:16.506Z,99.90
2018-04-06T04:28:43.873Z,99.90
2018-04-06T04:31:10.771Z,99.90
2018-04-06T04:33:38.542Z,99.90
2018-04-06T04:36:06.121Z,99.90
2018-04-06T04:38:32.399Z,99.90
2018-04-06T04:40:59.530Z,99.90
2018-04-06T04:43:26.349Z,99.90
2018-04-06T04:45:53.368Z,99.90
2018-04-06T04:48:21.959Z,99.90
2018-04-06T04:50:49.051Z,99.90
2018-04-06T04:53:15.842Z,99.90
2018-04-06T04:55:42.066Z,99.90
2018-04-06T04:58:09.047Z,99.90
2018-04-06T05:00:36.038Z,99.90
2018-04-06T05:03:02.334Z,99.90
2018-04-06T05:05:28.870Z,99.90
2018-04-06T05:07:56.350Z,99.90
2018-04-06T05:10:23.850Z,99.90
2018-04-06T05:12:50.159Z,99.90
2018-04-06T05:15:17.682Z,99.90
2018-04-06T05:17:43.940Z,99.90
2018-04-06T05:20:11.034Z,99.90
2018-04-06T05:22:37.311Z,99.90
2018-04-06T05:25:03.582Z,99.90
2018-04-06T05:27:30.673Z,99.90
2018-04-06T05:29:57.479Z,99.90
2018-04-06T05:32:24.493Z,99.90
2018-04-06T05:34:51.134Z,99.90
2018-04-06T05:37:17.390Z,99.90
2018-04-06T05:39:44.342Z,99.90
2018-04-06T05:42:10.606Z,99.90
2018-04-06T05:44:36.875Z,99.90
2018-04-06T05:47:03.806Z,99.90
2018-04-06T05:49:30.086Z,99.90
2018-04-06T05:51:56.346Z,99.90
2018-04-06T05:54:23.911Z,99.90
2018-04-06T05:56:52.502Z,99.90
2018-04-06T05:59:19.487Z,99.90
2018-04-06T06:01:45.742Z,99.90
2018-04-06T06:04:12.430Z,99.90
2018-04-06T06:06:40.329Z,99.90
2018-04-06T06:09:07.362Z,99.90
2018-04-06T06:11:34.361Z,99.90
2018-04-06T06:14:00.618Z,99.90
2018-04-06T06:16:26.888Z,99.90
2018-04-06T06:18:53.231Z,99.90
2018-04-06T06:21:19.602Z,99.90
2018-04-06T06:23:45.887Z,99.90
2018-04-06T06:26:12.886Z,99.90
2018-04-06T06:28:39.153Z,99.90
2018-04-06T06:31:06.334Z,99.90
2018-04-06T06:33:33.698Z,99.90
2018-04-06T06:35:59.953Z,99.90
2018-04-06T06:38:26.974Z,99.90
2018-04-06T06:40:54.031Z,99.90
2018-04-06T06:43:21.490Z,99.90
2018-04-06T06:45:48.498Z,99.90
2018-04-06T06:48:14.792Z,99.90
2018-04-06T06:50:41.318Z,99.90
2018-04-06T06:53:08.985Z,99.90
2018-04-06T06:55:36.072Z,99.10
2018-04-06T06:58:02.330Z,99.10
2018-04-06T07:00:28.602Z,98.20
2018-04-06T07:02:56.158Z,98.60
2018-04-06T07:05:22.885Z,98.60
2018-04-06T07:07:49.766Z,94.80
2018-04-06T07:10:17.550Z,96.60
2018-04-06T07:12:43.813Z,96.60
2018-04-06T07:15:10.053Z,96.00
2018-04-06T07:17:36.329Z,93.80
2018-04-06T07:20:03.327Z,92.50
2018-04-06T07:22:29.700Z,92.50
2018-04-06T07:24:56.872Z,94.80
2018-04-06T07:27:23.182Z,92.70
2018-04-06T07:29:50.110Z,90.10
2018-04-06T07:32:16.395Z,90.50
2018-04-06T07:34:43.153Z,91.30
2018-04-06T07:37:10.165Z,90.10
2018-04-06T07:39:36.448Z,90.20
2018-04-06T07:42:03.698Z,88.00
2018-04-06T07:44:30.697Z,88.10
2018-04-06T07:46:57.127Z,88.00
2018-04-06T07:49:23.633Z,83.80
2018-04-06T07:51:50.636Z,86.10
2018-04-06T07:54:17.448Z,86.10
2018-04-06T07:56:44.486Z,88.10
2018-04-06T07:59:11.464Z,84.80
2018-04-06T08:01:37.748Z,84.70
2018-04-06T08:04:04.806Z,84.80
2018-04-06T08:06:32.304Z,82.80
2018-04-06T08:08:58.621Z,82.50
2018-04-06T08:11:25.405Z,84.00
2018-04-06T08:13:51.668Z,81.90
2018-04-06T08:16:17.928Z,83.50
2018-04-06T08:18:45.195Z,81.50
2018-04-06T08:21:12.190Z,81.20
2018-04-06T08:23:38.545Z,80.90
2018-04-06T08:26:05.687Z,80.20
2018-04-06T08:28:31.965Z,79.70
2018-04-06T08:30:59.427Z,74.70
2018-04-06T08:33:26.997Z,76.50
2018-04-06T08:35:54.010Z,74.20
2018-04-06T08:38:20.278Z,74.40
2018-04-06T08:40:47.534Z,73.80
2018-04-06T08:43:14.552Z,72.30
2018-04-06T08:45:40.905Z,72.30
2018-04-06T08:48:07.478Z,74.20
2018-04-06T08:50:33.750Z,69.20
2018-04-06T08:53:01.574Z,72.20
2018-04-06T08:55:28.574Z,73.40
2018-04-06T08:57:54.822Z,73.20
2018-04-06T09:00:21.409Z,70.90
2018-04-06T09:02:48.398Z,70.20
2018-04-06T09:05:16.969Z,69.50
2018-04-06T09:07:43.765Z,67.50
2018-04-06T09:10:10.534Z,66.00
2018-04-06T09:12:37.581Z,68.70
2018-04-06T09:15:04.442Z,68.60
2018-04-06T09:17:31.426Z,65.50
2018-04-06T09:19:57.730Z,65.40
2018-04-06T09:22:24.753Z,66.70
2018-04-06T09:24:51.722Z,66.80
2018-04-06T09:27:18.718Z,65.40
2018-04-06T09:29:45.534Z,65.30
2018-04-06T09:32:12.526Z,62.80
2018-04-06T09:34:39.950Z,62.30
2018-04-06T09:37:06.218Z,60.30
2018-04-06T09:39:32.494Z,58.20
2018-04-06T09:41:59.059Z,63.20
2018-04-06T09:44:25.309Z,62.30
2018-04-06T09:46:51.666Z,58.10
2018-04-06T09:49:17.950Z,57.10
2018-04-06T09:51:44.950Z,62.00
2018-04-06T09:54:12.289Z,61.00
2018-04-06T09:56:38.607Z,61.60
2018-04-06T09:59:05.598Z,60.60
2018-04-06T10:01:34.766Z,59.80
2018-04-06T10:04:02.223Z,56.00
2018-04-06T10:06:29.779Z,55.00
2018-04-06T10:08:57.158Z,55.00
2018-04-06T10:11:24.186Z,55.00
2018-04-06T10:13:51.185Z,55.80
2018-04-06T10:16:17.457Z,55.30
2018-04-06T10:18:44.554Z,56.80
2018-04-06T10:21:11.198Z,56.40
2018-04-06T10:23:37.446Z,55.80
2018-04-06T10:26:03.734Z,50.10
2018-04-06T10:28:30.393Z,54.50
2018-04-06T10:30:57.943Z,49.70
2018-04-06T10:33:24.811Z,49.80
2018-04-06T10:35:51.830Z,51.90
2018-04-06T10:38:18.101Z,51.80
2018-04-06T10:40:45.159Z,50.90
2018-04-06T10:43:11.418Z,50.90
2018-04-06T10:45:38.590Z,53.50
2018-04-06T10:48:04.878Z,47.80
2018-04-06T10:50:31.873Z,53.00
2018-04-06T10:52:58.675Z,52.70
2018-04-06T10:55:25.674Z,50.70
2018-04-06T10:57:52.046Z,50.50
2018-04-06T11:00:19.009Z,52.90
2018-04-06T11:02:46.057Z,51.00
2018-04-06T11:05:13.537Z,48.00
2018-04-06T11:07:40.313Z,48.20
2018-04-06T11:10:07.650Z,48.00
2018-04-06T11:12:33.926Z,48.40
2018-04-06T11:15:00.187Z,46.50
2018-04-06T11:17:26.470Z,48.20
2018-04-06T11:19:53.384Z,45.10
2018-04-06T11:22:20.407Z,46.60
2018-04-06T11:24:47.198Z,46.60
2018-04-06T11:27:13.454Z,42.60
2018-04-06T11:29:39.703Z,45.30
2018-04-06T11:32:06.023Z,43.10
2018-04-06T11:34:32.998Z,45.20
2018-04-06T11:36:59.257Z,46.20
2018-04-06T11:39:25.524Z,46.00
2018-04-06T11:41:51.808Z,40.70
2018-04-06T11:44:18.062Z,45.10
2018-04-06T11:46:44.459Z,42.60
2018-04-06T11:49:10.737Z,42.30
2018-04-06T11:51:38.008Z,43.40
2018-04-06T11:54:05.622Z,42.20
2018-04-06T11:56:31.849Z,42.20
2018-04-06T11:58:58.099Z,42.90
2018-04-06T12:01:24.804Z,42.30
2018-04-06T12:03:52.166Z,40.90
2018-04-06T12:06:18.419Z,40.30
2018-04-06T12:08:45.998Z,40.50
2018-04-06T12:11:12.805Z,40.90
2018-04-06T12:13:39.792Z,40.90
2018-04-06T12:16:06.694Z,40.90
2018-04-06T12:18:34.270Z,42.90
2018-04-06T12:21:01.264Z,40.10
2018-04-06T12:23:28.057Z,40.00
2018-04-06T12:25:55.062Z,37.70
2018-04-06T12:28:21.363Z,37.70
2018-04-06T12:30:47.741Z,37.70
2018-04-06T12:33:14.942Z,41.30
2018-04-06T12:35:41.930Z,39.40
2018-04-06T12:38:08.225Z,39.50
2018-04-06T12:40:35.491Z,35.10
2018-04-06T12:43:02.507Z,36.70
2018-04-06T12:45:28.862Z,36.90
2018-04-06T12:47:55.877Z,36.90
2018-04-06T12:50:23.503Z,37.40
2018-04-06T12:52:50.369Z,37.80
2018-04-06T12:55:16.629Z,38.50
2018-04-06T12:57:42.885Z,39.00
2018-04-06T13:00:09.650Z,37.30
2018-04-06T13:02:36.713Z,36.60
2018-04-06T13:05:04.138Z,34.50
2018-04-06T13:07:31.459Z,34.40
2018-04-06T13:09:58.189Z,33.50
2018-04-06T13:12:24.459Z,35.70
2018-04-06T13:14:51.393Z,36.20
2018-04-06T13:17:17.965Z,36.00
2018-04-06T13:19:45.086Z,35.20
2018-04-06T13:22:11.875Z,36.00
2018-04-06T13:24:38.234Z,36.20
2018-04-06T13:27:05.298Z,34.50
2018-04-06T13:29:32.386Z,35.30
2018-04-06T13:31:58.807Z,35.40
2018-04-06T13:34:25.786Z,35.50
2018-04-06T13:36:52.153Z,35.70
2018-04-06T13:39:18.443Z,36.50
2018-04-06T13:41:45.254Z,36.30
2018-04-06T13:44:12.280Z,36.80
2018-04-06T13:46:38.563Z,36.70
2018-04-06T13:49:06.054Z,35.90
2018-04-06T13:51:32.651Z,35.90
2018-04-06T13:54:00.216Z,36.80
2018-04-06T13:56:28.246Z,37.20
2018-04-06T13:58:54.574Z,37.20
2018-04-06T14:01:21.010Z,36.10
2018-04-06T14:03:48.186Z,36.10
2018-04-06T14:06:15.554Z,36.00
2018-04-06T14:08:42.974Z,36.80
2018-04-06T14:11:09.793Z,36.80
2018-04-06T14:13:37.353Z,36.10
2018-04-06T14:16:04.366Z,36.10
2018-04-06T14:18:31.151Z,36.10
2018-04-06T14:20:58.207Z,36.80
2018-04-06T14:23:25.218Z,35.50
2018-04-06T14:25:51.502Z,35.40
2018-04-06T14:28:17.753Z,35.60
2018-04-06T14:30:44.679Z,35.40
2018-04-06T14:33:12.550Z,35.70
2018-04-06T14:35:39.741Z,35.70
2018-04-06T14:38:06.550Z,36.40
2018-04-06T14:40:33.545Z,36.10
2018-04-06T14:43:00.770Z,36.10
2018-04-06T14:45:27.303Z,36.90
2018-04-06T14:47:54.306Z,37.40
2018-04-06T14:50:20.667Z,37.40
2018-04-06T14:52:48.046Z,37.30
2018-04-06T14:55:15.043Z,36.40
2018-04-06T14:57:41.334Z,36.40
2018-04-06T15:00:08.386Z,36.30
2018-04-06T15:02:35.486Z,37.20
2018-04-06T15:05:02.294Z,37.20
2018-04-06T15:07:29.858Z,37.10
2018-04-06T15:09:57.370Z,36.80
2018-04-06T15:12:23.703Z,36.80
2018-04-06T15:14:50.502Z,37.10
2018-04-06T15:17:17.507Z,37.20
2018-04-06T15:19:43.834Z,37.10
2018-04-06T15:22:10.143Z,36.60
2018-04-06T15:24:37.105Z,37.00
2018-04-06T15:27:03.838Z,36.90
2018-04-06T15:29:30.094Z,36.60
2018-04-06T15:31:56.364Z,36.90
2018-04-06T15:34:23.118Z,37.10
2018-04-06T15:36:49.458Z,37.40
2018-04-06T15:39:15.721Z,37.10
2018-04-06T15:41:42.260Z,38.10
2018-04-06T15:44:08.535Z,37.40
2018-04-06T15:46:34.878Z,37.80
2018-04-06T15:49:01.184Z,37.30
2018-04-06T15:51:27.470Z,37.00
2018-04-06T15:53:54.654Z,36.60
2018-04-06T15:56:22.088Z,35.80
2018-04-06T15:58:49.105Z,35.50
2018-04-06T16:01:15.386Z,35.40
2018-04-06T16:03:42.932Z,36.20
2018-04-06T16:06:09.706Z,36.20
2018-04-06T16:08:37.274Z,37.60
2018-04-06T16:11:04.710Z,38.50
2018-04-06T16:13:31.584Z,38.50
2018-04-06T16:15:59.062Z,39.50
2018-04-06T16:18:25.394Z,39.50
2018-04-06T16:20:51.654Z,40.20
2018-04-06T16:23:17.926Z,40.70
2018-04-06T16:25:44.942Z,41.40
2018-04-06T16:28:11.344Z,41.30
2018-04-06T16:30:38.593Z,42.00
2018-04-06T16:33:07.094Z,42.60
2018-04-06T16:35:33.353Z,42.60
2018-04-06T16:37:59.630Z,43.00
2018-04-06T16:40:26.198Z,43.30
2018-04-06T16:42:53.209Z,43.80
2018-04-06T16:45:19.603Z,43.90
2018-04-06T16:47:46.153Z,44.50
2018-04-06T16:50:12.409Z,44.50
2018-04-06T16:52:40.245Z,44.60
2018-04-06T16:55:08.247Z,46.10
2018-04-06T16:57:34.496Z,48.20
2018-04-06T17:00:00.770Z,49.90
2018-04-06T17:02:28.382Z,50.50
2018-04-06T17:04:55.086Z,50.60
2018-04-06T17:07:22.624Z,51.00
2018-04-06T17:09:49.793Z,51.00
2018-04-06T17:12:16.480Z,55.90
2018-04-06T17:14:42.784Z,54.40
2018-04-06T17:17:10.364Z,55.60
2018-04-06T17:19:36.664Z,55.30
2018-04-06T17:22:02.937Z,53.50
2018-04-06T17:24:29.219Z,56.80
2018-04-06T17:26:55.473Z,54.70
2018-04-06T17:29:21.896Z,54.40
2018-04-06T17:31:48.479Z,55.20
2018-04-06T17:34:15.917Z,54.40
2018-04-06T17:36:42.273Z,54.50
2018-04-06T17:39:09.257Z,54.50
2018-04-06T17:41:35.757Z,54.60
2018-04-06T17:44:02.775Z,55.00
2018-04-06T17:46:29.129Z,55.00
2018-04-06T17:48:55.698Z,55.40
2018-04-06T17:51:22.677Z,56.40
2018-04-06T17:53:49.560Z,56.50
2018-04-06T17:56:15.808Z,56.30
2018-04-06T17:58:42.160Z,56.50
2018-04-06T18:01:09.175Z,56.90
2018-04-06T18:03:35.865Z,56.90
2018-04-06T18:06:03.361Z,58.70
2018-04-06T18:08:30.177Z,58.80
2018-04-06T18:10:56.802Z,59.30
2018-04-06T18:13:23.665Z,59.20
2018-04-06T18:15:51.425Z,61.00
2018-04-06T18:18:19.029Z,60.00
2018-04-06T18:20:45.336Z,60.20
2018-04-06T18:23:12.342Z,60.60
2018-04-06T18:25:38.934Z,60.70
2018-04-06T18:28:05.973Z,61.20
2018-04-06T18:30:33.094Z,61.80
2018-04-06T18:32:59.905Z,61.20
2018-04-06T18:35:26.174Z,63.40
2018-04-06T18:37:52.813Z,66.90
2018-04-06T18:40:19.105Z,63.20
2018-04-06T18:42:46.258Z,64.00
2018-04-06T18:45:13.289Z,68.80
2018-04-06T18:47:39.565Z,68.90
2018-04-06T18:50:05.923Z,69.20
2018-04-06T18:52:33.293Z,67.10
2018-04-06T18:54:59.588Z,66.00
2018-04-06T18:57:26.510Z,65.80
2018-04-06T18:59:53.526Z,66.00
2018-04-06T19:02:20.211Z,66.00
2018-04-06T19:04:48.609Z,67.40
2018-04-06T19:07:16.152Z,66.80
2018-04-06T19:09:42.974Z,66.90
2018-04-06T19:12:09.342Z,67.00
2018-04-06T19:14:36.358Z,67.70
2018-04-06T19:17:03.025Z,67.80
2018-04-06T19:19:29.880Z,68.50
2018-04-06T19:21:56.181Z,68.00
2018-04-06T19:24:22.499Z,67.90
2018-04-06T19:26:48.840Z,68.50
2018-04-06T19:29:15.135Z,68.40
2018-04-06T19:31:42.243Z,67.40
2018-04-06T19:34:08.918Z,67.50
2018-04-06T19:36:36.282Z,68.90
2018-04-06T19:39:03.388Z,69.10
2018-04-06T19:41:29.659Z,69.30
2018-04-06T19:43:56.483Z,70.30
2018-04-06T19:46:22.819Z,69.30
2018-04-06T19:48:49.128Z,69.90
2018-04-06T19:51:16.355Z,69.70
2018-04-06T19:53:43.822Z,70.40
2018-04-06T19:56:10.868Z,71.80
2018-04-06T19:58:38.464Z,72.20
2018-04-06T20:01:05.151Z,72.30
2018-04-06T20:03:31.955Z,71.00
2018-04-06T20:05:58.614Z,72.20
2018-04-06T20:08:25.521Z,72.20
2018-04-06T20:10:53.730Z,72.20
2018-04-06T20:13:19.993Z,72.30
2018-04-06T20:15:47.048Z,73.60
2018-04-06T20:18:14.158Z,72.90
2018-04-06T20:20:40.432Z,74.20
2018-04-06T20:23:06.705Z,72.50
2018-04-06T20:25:33.001Z,72.20
2018-04-06T20:27:59.271Z,72.40
2018-04-06T20:30:25.626Z,76.40
2018-04-06T20:32:52.710Z,74.00
2018-04-06T20:35:19.540Z,74.10
2018-04-06T20:37:46.484Z,73.20
2018-04-06T20:40:12.744Z,73.70
2018-04-06T20:42:39.497Z,74.80
2018-04-06T20:45:05.758Z,77.30
2018-04-06T20:47:32.045Z,76.00
2018-04-06T20:49:59.185Z,79.90
2018-04-06T20:52:26.197Z,76.50
2018-04-06T20:54:53.710Z,76.50
2018-04-06T20:57:19.967Z,77.00
2018-04-06T20:59:46.245Z,77.60
2018-04-06T21:02:13.024Z,80.90
2018-04-06T21:04:39.874Z,77.70
2018-04-06T21:07:06.609Z,78.60
2018-04-06T21:09:34.075Z,77.30
2018-04-06T21:12:01.054Z,77.00
2018-04-06T21:14:27.343Z,77.20
2018-04-06T21:16:54.856Z,81.30
2018-04-06T21:19:21.881Z,81.30
2018-04-06T21:21:48.169Z,80.00
2018-04-06T21:24:14.441Z,82.10
2018-04-06T21:26:41.706Z,80.40
2018-04-06T21:29:08.617Z,80.30
2018-04-06T21:31:34.909Z,79.80
2018-04-06T21:34:01.631Z,79.50
2018-04-06T21:36:28.633Z,82.20
2018-04-06T21:38:54.926Z,82.20
2018-04-06T21:41:22.282Z,79.60
2018-04-06T21:43:49.273Z,80.20
2018-04-06T21:46:15.671Z,80.20
2018-04-06T21:48:42.925Z,82.20
2018-04-06T21:51:09.917Z,80.40
2018-04-06T21:53:36.926Z,80.50
2018-04-06T21:56:03.961Z,82.80
2018-04-06T21:58:31.234Z,82.80
2018-04-06T22:00:58.298Z,78.90
2018-04-06T22:03:25.894Z,82.60
2018-04-06T22:05:52.573Z,82.60
2018-04-06T22:08:19.465Z,80.80
2018-04-06T22:10:46.196Z,81.30
2018-04-06T22:13:13.225Z,83.30
2018-04-06T22:15:40.004Z,83.30
2018-04-06T22:18:06.871Z,82.40
2018-04-06T22:20:33.137Z,80.00
2018-04-06T22:22:59.417Z,82.50
2018-04-06T22:25:26.438Z,81.60
2018-04-06T22:27:53.309Z,81.60
2018-04-06T22:30:20.726Z,82.40
2018-04-06T22:32:46.993Z,82.50
2018-04-06T22:35:13.857Z,81.90
2018-04-06T22:37:41.528Z,83.10
2018-04-06T22:40:08.558Z,81.20
2018-04-06T22:42:34.849Z,81.30
2018-04-06T22:45:01.159Z,84.40
2018-04-06T22:47:27.433Z,83.00
2018-04-06T22:49:54.118Z,83.00
2018-04-06T22:52:21.697Z,81.10
2018-04-06T22:54:49.113Z,84.50
2018-04-06T22:57:16.002Z,84.50
2018-04-06T22:59:43.008Z,83.90
2018-04-06T23:02:09.270Z,84.30
2018-04-06T23:04:35.965Z,81.40
2018-04-06T23:07:02.305Z,82.70
2018-04-06T23:09:29.127Z,80.80
2018-04-06T23:11:56.113Z,83.70
2018-04-06T23:14:22.353Z,83.70
2018-04-06T23:16:49.146Z,83.30
2018-04-06T23:19:16.465Z,83.70
2018-04-06T23:21:42.719Z,83.80
2018-04-06T23:24:08.965Z,82.90
2018-04-06T23:26:35.531Z,85.90
2018-04-06T23:29:02.576Z,84.40
2018-04-06T23:31:29.587Z,85.60
2018-04-06T23:33:56.449Z,85.80
2018-04-06T23:36:22.703Z,84.60
2018-04-06T23:38:49.705Z,84.10
2018-04-06T23:41:15.978Z,84.20
2018-04-06T23:43:43.730Z,83.90
2018-04-06T23:46:10.098Z,84.00
2018-04-06T23:48:37.632Z,85.60
2018-04-06T23:51:04.113Z,85.80
2018-04-06T23:53:31.275Z,86.40
2018-04-06T23:55:57.545Z,85.30
2018-04-06T23:58:23.793Z,84.70
